Time;durP1;ratioP1;P1;durP2;ratioP2;P2;SDS_P1;SDS_P2;PMS_P1;PMS_P2;Temp;Humidity;BMP_temperature;BMP_pressure;BME280_temperature;BME280_humidity;BME280_pressure;Samples;Min_cycle;Max_cycle;Signal;HPM_P1;HPM_P2
2021/11/27 09:51:43;;;;;;;1.50;1.13;;;;;;;5.18;97.51;96404.56;5173450;27;1343799;-79
2021/11/27 09:54:16;;;;;;;1.27;1.17;;;;;;;5.89;96.02;96403.13;5162301;27;38586;-77
2021/11/27 09:56:44;;;;;;;1.87;1.17;;;;;;;6.52;90.83;96403.94;5164989;27;41087;-75
2021/11/27 09:59:12;;;;;;;1.27;1.03;;;;;;;7.00;86.43;96405.94;5166300;27;41868;-77
2021/11/27 10:01:44;;;;;;;1.53;1.43;;;;;;;7.36;84.06;96413.22;5177024;27;42330;-77
2021/11/27 10:04:14;;;;;;;0.97;0.80;;;;;;;7.73;81.39;96409.94;5147276;27;40806;-77
2021/11/27 10:06:45;;;;;;;1.27;1.17;;;;;;;8.03;79.08;96412.44;5149377;27;40736;-77
2021/11/27 10:09:14;;;;;;;0.77;0.77;;;;;;;8.35;76.94;96408.66;5177882;27;42806;-78
2021/11/27 10:11:44;;;;;;;0.97;0.80;;;;;;;8.61;75.67;96412.34;5150003;27;42337;-78
2021/11/27 10:14:12;;;;;;;2.87;0.60;;;;;;;8.87;74.78;96415.19;5167272;27;39863;-79
2021/11/27 10:17:06;;;;;;;1.10;1.00;;;;;;;9.02;72.62;96422.47;5157532;27;41409;-79
2021/11/27 10:19:54;;;;;;;0.90;0.70;;;;;;;8.87;73.06;96423.94;5184990;27;41971;-77
2021/11/27 10:22:28;;;;;;;0.70;0.70;;;;;;;8.76;72.79;96416.19;5151710;27;40944;-77
2021/11/27 10:24:56;;;;;;;1.50;1.23;;;;;;;8.68;71.62;96433.69;5170104;27;39940;-79
2021/11/27 10:27:26;;;;;;;0.57;0.57;;;;;;;8.41;71.90;96423.91;5152128;27;41795;-77
2021/11/27 10:30:02;;;;;;;0.70;0.70;;;;;;;8.17;72.19;96403.25;5189240;27;43752;-78
2021/11/27 10:32:33;;;;;;;2.07;1.07;;;;;;;8.50;72.05;96417.81;5173400;27;41044;-78
2021/11/27 10:35:05;;;;;;;1.30;0.90;;;;;;;8.71;70.71;96423.72;5191779;27;40713;-78
2021/11/27 10:37:38;;;;;;;1.30;0.90;;;;;;;8.77;70.54;96427.59;5176691;27;41639;-79
2021/11/27 10:40:10;;;;;;;1.10;1.00;;;;;;;8.69;70.87;96425.66;5186963;27;41646;-79
2021/11/27 10:42:41;;;;;;;1.17;0.83;;;;;;;8.65;69.78;96432.22;5187686;27;42232;-77
2021/11/27 10:45:16;;;;;;;0.93;0.80;;;;;;;8.68;69.60;96434.53;5170953;27;40114;-78
2021/11/27 10:47:46;;;;;;;0.90;0.80;;;;;;;8.71;69.63;96433.44;5164474;27;41558;-78
2021/11/27 10:50:19;;;;;;;1.20;1.10;;;;;;;8.63;69.72;96432.34;5148188;27;43547;-78
2021/11/27 10:52:51;;;;;;;0.83;0.70;;;;;;;8.52;69.85;96439.59;5130916;27;42599;-78
2021/11/27 10:55:22;;;;;;;0.90;0.90;;;;;;;8.31;68.46;96452.91;5132965;27;38750;-78
2021/11/27 10:57:55;;;;;;;0.60;0.60;;;;;;;8.19;69.22;96431.13;5188330;27;42683;-78
2021/11/27 11:00:33;;;;;;;1.23;0.80;;;;;;;8.18;68.85;96450.56;5170985;27;42911;-78
2021/11/27 11:03:02;;;;;;;0.70;0.70;;;;;;;7.98;68.79;96442.81;5138517;27;41433;-78
2021/11/27 11:05:33;;;;;;;1.53;1.00;;;;;;;7.84;69.76;96439.59;5138218;27;40104;-79
2021/11/27 11:08:03;;;;;;;1.27;0.90;;;;;;;7.72;70.50;96445.16;5174239;27;42013;-78
2021/11/27 11:10:32;;;;;;;0.80;0.80;;;;;;;7.62;70.87;96439.03;5172389;27;42803;-79
2021/11/27 11:13:02;;;;;;;0.70;0.70;;;;;;;7.53;70.59;96425.72;5138754;27;42359;-77
2021/11/27 11:15:32;;;;;;;0.80;0.80;;;;;;;7.50;71.32;96412.84;5172301;27;40576;-78
2021/11/27 11:18:16;;;;;;;1.07;0.70;;;;;;;7.65;71.69;96404.53;5156105;27;41620;-78
2021/11/27 11:20:47;;;;;;;0.70;0.70;;;;;;;7.79;71.27;96404.13;5136232;27;42947;-78
2021/11/27 11:23:21;;;;;;;0.67;0.60;;;;;;;7.97;71.07;96402.44;5174231;27;42081;-79
2021/11/27 11:26:05;;;;;;;1.00;0.70;;;;;;;8.28;70.94;96395.22;5165361;27;40304;-78
2021/11/27 11:28:36;;;;;;;1.00;0.90;;;;;;;9.21;68.88;96413.63;5134528;27;40896;-79
2021/11/27 11:31:07;;;;;;;1.13;1.03;;;;;;;9.77;67.69;96422.34;5137384;27;41853;-79
2021/11/27 11:33:38;;;;;;;0.87;0.70;;;;;;;10.50;65.31;96428.28;5137848;27;41148;-78
2021/11/27 11:36:09;;;;;;;0.60;0.60;;;;;;;11.47;60.92;96449.97;5156616;27;39037;-78
2021/11/27 11:38:39;;;;;;;0.80;0.80;;;;;;;11.63;60.29;96450.00;5156567;27;40597;-79
2021/11/27 11:41:07;;;;;;;0.73;0.70;;;;;;;11.71;59.61;96454.53;5149892;27;42406;-78
2021/11/27 11:43:34;;;;;;;1.43;0.80;;;;;;;11.38;60.49;96450.91;5162948;27;42397;-79
2021/11/27 11:46:03;;;;;;;1.83;0.90;;;;;;;11.02;61.49;96458.19;5170130;27;40109;-78
2021/11/27 11:48:31;;;;;;;0.97;0.80;;;;;;;10.82;61.27;96468.19;5151828;27;40654;-78
2021/11/27 11:51:14;;;;;;;0.60;0.60;;;;;;;10.57;60.71;96476.94;5149508;27;42853;-78
2021/11/27 11:53:48;;;;;;;0.40;0.40;;;;;;;9.98;61.31;96444.00;5151774;27;41990;-79
2021/11/27 11:56:19;;;;;;;1.13;0.93;;;;;;;9.89;61.80;96484.56;5167095;27;39731;-78
2021/11/27 11:58:49;;;;;;;0.70;0.70;;;;;;;9.51;62.22;96481.19;5146605;27;41803;-78
2021/11/27 12:01:19;;;;;;;1.10;1.00;;;;;;;9.22;63.54;96478.66;5168010;27;43466;-78
2021/11/27 12:03:49;;;;;;;1.13;1.07;;;;;;;9.09;64.57;96479.97;5158258;27;41988;-79
2021/11/27 12:06:24;;;;;;;0.70;0.70;;;;;;;9.04;64.59;96477.75;5154299;27;40218;-79
2021/11/27 12:09:07;;;;;;;1.13;1.03;;;;;;;8.99;64.99;96472.94;5154053;27;41680;-79
2021/11/27 12:11:56;;;;;;;1.00;1.00;;;;;;;8.96;65.20;96467.94;5138601;27;43260;-79
2021/11/27 12:14:59;;;;;;;0.90;0.90;;;;;;;8.88;65.09;96473.09;5152459;27;41213;-79
2021/11/27 12:17:27;;;;;;;1.63;0.80;;;;;;;8.77;65.47;96472.44;5154747;27;39774;-80
2021/11/27 12:19:57;;;;;;;0.80;0.80;;;;;;;8.68;65.29;96482.03;5133362;27;41623;-80
2021/11/27 12:22:37;;;;;;;0.87;0.70;;;;;;;8.52;64.66;96476.53;5133848;27;42926;-79
2021/11/27 12:25:23;;;;;;;1.27;1.17;;;;;;;8.65;64.71;96482.34;5153378;27;41297;-79
2021/11/27 12:28:20;;;;;;;1.10;1.00;;;;;;;8.61;64.51;96496.78;5176904;27;39927;-79
2021/11/27 12:31:05;;;;;;;1.30;1.00;;;;;;;8.54;63.91;96506.19;5156776;27;40911;-79
2021/11/27 12:33:54;;;;;;;1.00;1.00;;;;;;;8.44;63.82;96503.56;5138867;27;43209;-79
2021/11/27 12:36:44;;;;;;;1.17;1.00;;;;;;;8.38;64.01;96505.97;5136582;27;42462;-77
2021/11/27 12:39:16;;;;;;;0.97;0.97;;;;;;;8.35;64.50;96506.22;5157052;27;40284;-78
2021/11/27 12:41:48;;;;;;;0.73;0.73;;;;;;;8.39;64.36;96502.34;5155584;27;40930;-77
2021/11/27 12:44:19;;;;;;;1.27;1.20;;;;;;;8.43;64.59;96493.16;5152756;27;43737;-79
2021/11/27 12:46:49;;;;;;;1.10;1.10;;;;;;;8.58;64.11;96507.59;5154393;27;42248;-79
2021/11/27 12:49:54;;;;;;;1.13;1.10;;;;;;;8.60;64.03;96513.56;5161472;27;39025;-80
2021/11/27 12:52:30;;;;;;;1.10;1.00;;;;;;;8.43;64.02;96501.06;5144348;27;40953;-79
2021/11/27 12:55:19;;;;;;;1.77;1.30;;;;;;;8.38;64.33;96498.03;5167435;27;41749;-79
2021/11/27 12:57:49;;;;;;;1.63;0.80;;;;;;;8.41;64.60;96505.66;5175657;27;42227;-79
2021/11/27 13:00:19;;;;;;;1.10;1.00;;;;;;;8.30;63.52;96519.78;5147536;27;39095;-79
2021/11/27 13:02:51;;;;;;;0.80;0.80;;;;;;;8.12;64.32;96501.22;5156711;27;40347;-79
2021/11/27 13:05:19;;;;;;;1.07;0.97;;;;;;;8.23;64.14;96513.41;5174640;27;42554;-77
2021/11/27 13:07:47;;;;;;;1.10;1.07;;;;;;;8.25;64.29;96520.22;5171214;27;42268;-78
2021/11/27 13:10:15;;;;;;;1.23;0.90;;;;;;;8.21;64.43;96516.19;5179136;27;39837;-77
2021/11/27 13:12:59;;;;;;;0.90;0.90;;;;;;;8.15;64.83;96526.47;5163098;27;42981;-77
2021/11/27 13:15:28;;;;;;;0.80;0.80;;;;;;;7.88;64.89;96492.88;5171113;27;43558;-78
2021/11/27 13:18:07;;;;;;;1.00;1.00;;;;;;;7.94;65.17;96506.31;5157197;27;41887;-77
2021/11/27 13:20:44;;;;;;;1.40;1.23;;;;;;;7.99;65.54;96527.00;5162718;27;39136;-77
2021/11/27 13:23:12;;;;;;;0.97;0.97;;;;;;;7.96;65.60;96524.63;5153266;27;41396;-78
2021/11/27 13:25:42;;;;;;;2.00;1.10;;;;;;;7.83;65.67;96495.91;5136365;27;41363;-77
2021/11/27 13:28:31;;;;;;;1.10;0.90;;;;;;;7.92;65.82;96526.69;5178226;27;42956;-78
2021/11/27 13:31:01;;;;;;;1.00;0.93;;;;;;;7.89;65.44;96531.44;5159838;27;41245;-78
2021/11/27 13:33:50;;;;;;;1.90;1.00;;;;;;;7.88;65.94;96529.75;5170020;27;42227;-77
2021/11/27 13:36:43;;;;;;;0.90;0.90;;;;;;;7.86;65.98;96531.69;5173824;27;43476;-78
2021/11/27 13:39:20;;;;;;;1.03;1.00;;;;;;;7.85;66.14;96530.03;5154328;27;42175;-78
2021/11/27 13:42:02;;;;;;;1.20;0.87;;;;;;;7.82;66.13;96544.28;5152904;27;39295;-78
2021/11/27 13:44:37;;;;;;;0.90;0.80;;;;;;;7.82;65.94;96540.81;5136315;27;41687;-77
2021/11/27 13:47:07;;;;;;;1.77;1.30;;;;;;;7.82;66.42;96546.09;5151227;27;43158;-77
2021/11/27 13:49:36;;;;;;;1.17;1.07;;;;;;;7.78;66.58;96542.91;5157213;27;42425;-79
2021/11/27 13:52:08;;;;;;;1.30;1.20;;;;;;;7.75;66.73;96540.53;5147367;27;40875;-78
2021/11/27 13:54:37;;;;;;;1.23;1.13;;;;;;;7.69;66.46;96540.22;5120825;27;41620;-79
2021/11/27 13:57:06;;;;;;;0.90;0.90;;;;;;;7.65;66.99;96544.13;5149143;27;41795;-78
2021/11/27 13:59:36;;;;;;;1.00;1.00;;;;;;;7.57;67.67;96553.50;5136598;27;41063;-78
2021/11/27 14:02:07;;;;;;;0.97;0.97;;;;;;;7.50;67.37;96556.81;5122323;27;39917;-77
2021/11/27 14:04:36;;;;;;;0.80;0.80;;;;;;;7.45;67.84;96565.09;5153255;27;41882;-77
2021/11/27 14:07:06;;;;;;;1.30;1.20;;;;;;;7.41;68.61;96569.00;5137403;27;43022;-78
2021/11/27 14:09:53;;;;;;;1.87;0.90;;;;;;;7.37;68.89;96567.59;5142084;27;42581;-79
2021/11/27 14:12:33;;;;;;;0.90;0.90;;;;;;;7.38;69.11;96577.16;5166699;27;41105;-78
2021/11/27 14:15:09;;;;;;;1.30;0.90;;;;;;;7.40;69.31;96579.66;5135546;27;40963;-77
2021/11/27 14:17:38;;;;;;;0.80;0.80;;;;;;;7.43;68.97;96577.56;5152502;27;42724;-78
2021/11/27 14:20:18;;;;;;;1.70;1.27;;;;;;;7.40;69.09;96593.66;5170165;27;42269;-78
2021/11/27 14:22:55;;;;;;;1.40;1.20;;;;;;;7.33;69.38;96589.88;5171166;27;39989;-78
2021/11/27 14:25:24;;;;;;;1.17;1.00;;;;;;;7.28;69.42;96596.50;5135281;27;40362;-78
2021/11/27 14:27:55;;;;;;;1.10;1.00;;;;;;;7.13;69.72;96585.47;5153146;27;41596;-79
2021/11/27 14:30:26;;;;;;;1.00;1.00;;;;;;;7.13;70.15;96609.16;5150936;27;43140;-79
2021/11/27 14:33:15;;;;;;;0.93;0.93;;;;;;;7.04;70.17;96602.88;5136137;27;38977;-77
2021/11/27 14:35:43;;;;;;;1.30;1.20;;;;;;;7.06;69.91;96608.81;5151650;27;40781;-78
2021/11/27 14:38:11;;;;;;;1.13;0.90;;;;;;;7.05;70.34;96614.22;5173383;27;43010;-78
2021/11/27 14:40:58;;;;;;;1.40;1.30;;;;;;;6.99;70.84;96614.75;5163479;27;42683;-77
2021/11/27 14:43:26;;;;;;;1.80;1.50;;;;;;;6.89;70.67;96613.84;5159737;27;38988;-79
2021/11/27 14:45:55;;;;;;;1.40;1.20;;;;;;;6.82;70.96;96609.09;5156050;27;40749;-77
2021/11/27 14:48:34;;;;;;;1.20;1.10;;;;;;;6.76;70.93;96612.25;5156194;27;43057;-78
2021/11/27 14:51:03;;;;;;;1.23;1.17;;;;;;;6.69;70.71;96621.56;5155787;27;42844;-77
2021/11/27 14:53:36;;;;;;;1.50;1.27;;;;;;;6.66;71.06;96632.38;5173996;27;39928;-78
2021/11/27 14:56:05;;;;;;;1.37;1.20;;;;;;;6.61;71.19;96626.66;5157295;27;40726;-77
2021/11/27 14:58:33;;;;;;;1.43;1.23;;;;;;;6.62;71.00;96633.56;5171898;27;42429;-78
2021/11/27 15:01:05;;;;;;;1.80;1.50;;;;;;;6.62;70.86;96635.38;5167684;27;42249;-78
2021/11/27 15:03:33;;;;;;;1.00;1.00;;;;;;;6.60;71.11;96630.22;5137334;27;44305;-78
2021/11/27 15:06:05;;;;;;;1.63;1.20;;;;;;;6.55;71.20;96642.09;5174253;27;41750;-78
2021/11/27 15:08:33;;;;;;;1.67;1.33;;;;;;;6.46;70.86;96638.41;5163564;27;48207;-78
2021/11/27 15:11:01;;;;;;;2.13;1.40;;;;;;;6.49;71.23;96648.69;5155946;27;41511;-78
2021/11/27 15:13:29;;;;;;;1.20;1.10;;;;;;;6.36;71.00;96637.50;5151771;27;39722;-78
2021/11/27 15:15:57;;;;;;;2.67;1.90;;;;;;;6.30;71.21;96635.38;5136683;27;41536;-78
2021/11/27 15:18:26;;;;;;;2.03;1.67;;;;;;;6.39;71.40;96660.91;5172094;27;42733;-78
2021/11/27 15:20:53;;;;;;;1.77;1.60;;;;;;;6.37;71.31;96665.44;5172532;27;42245;-78
2021/11/27 15:23:21;;;;;;;1.70;1.50;;;;;;;6.32;71.00;96663.19;5173281;27;40693;-78
2021/11/27 15:25:49;;;;;;;1.37;1.27;;;;;;;6.27;70.91;96661.91;5173660;27;42831;-79
2021/11/27 15:28:17;;;;;;;1.47;1.23;;;;;;;6.27;70.83;96672.41;5155432;27;41646;-77
2021/11/27 15:30:44;;;;;;;1.57;1.30;;;;;;;6.25;70.73;96671.69;5138166;27;42541;-78
2021/11/27 15:33:12;;;;;;;1.53;1.27;;;;;;;6.21;70.55;96676.34;5154280;27;40042;-77
2021/11/27 15:35:41;;;;;;;1.47;1.30;;;;;;;6.09;70.53;96662.41;5153226;27;40926;-78
2021/11/27 15:38:09;;;;;;;1.20;1.10;;;;;;;6.20;70.51;96684.34;5172398;27;43006;-78
2021/11/27 15:40:37;;;;;;;1.63;1.20;;;;;;;6.20;70.75;96685.19;5162190;27;41985;-78
